Couderay, WI (54828)

5:14 PM CST on February 08, 2016 (GMT -0600)
Callahan Lake | | Change Station
CLOSE
Current Station
Personal Weather Station
Location: Hayward, WI
Elevation: 1358 ft
Nearby Weather Stations

Elev 1358 ft 45.99 °N, 91.24 °W | Updated 3 seconds ago

Snow
Snow
11.3 °F
Feels Like -2 °F
N
9.6
Wind Variable Wind from WNW
Gusts 9.8 mph

Today
High -- | Low -- °F
--% Chance of Precip.
Yesterday
High -- | Low -- °F
Precip. -- in
Pressure 29.88 in
Visibility 1.2 miles
Clouds Mostly Cloudy 2800 ft
Overcast 4800 ft
Windchill -2 °F
Dew Point 1 °F
Humidity 62%
Rainfall 0.00 in
Snow Depth Not available.
7:18 AM 5:20 PM
New Moon, 0% visible
SPECI KHYR 082309Z AUTO 32008G15KT 280V350 1 1/4SM -SN BKN028 OVC048 M12/M16 A2988 RMK AO2 P0000 T11171156
Pressure 29.88 in
Visibility 1.2 miles
Clouds Mostly Cloudy 2800 ft
Overcast 4800 ft
Windchill -2 °F
Dew Point 1 °F
Humidity 62%
Rainfall 0.00 in
Snow Depth Not available.
7:18 AM 5:20 PM
New Moon, 0% visible
SPECI KHYR 082309Z AUTO 32008G15KT 280V350 1 1/4SM -SN BKN028 OVC048 M12/M16 A2988 RMK AO2 P0000 T11171156

10-Day Weather Forecast

Almanac

Astronomy

Feb. 08, 2016 Rise Set
Actual Time
Civil Twilight
Nautical Twilight
Astronomical Twilight
Moon
Length of Visible Light
Length of Day
Tomorrow will be .
, % of the Moon is Illuminated

Today's Extremes

State Highs State Lows

Community

WunderPhotos

Upload Photos

1,891,525 photos uploaded!

WunderBlog® & News

Nearby

Air Quality

  Air Quality AQ Index Pollutant
Not available.

Snow Depth

Station Depth Elevation

Earthquake Activity

City Distance Mag. Time & Date
Minimum magnitude displayed is 2.5.

Coastal Water Temperatures

Place Temperature

Stations

Nearby Weather Stations

Station Location Temp. Windchill Dew Point Humidity Wind Precip. Elev Updated Type
                   

Watches & Warnings

There are currently no watches in effect.